Time;durP1;ratioP1;P1;durP2;ratioP2;P2;SDS_P1;SDS_P2;PMS_P1;PMS_P2;Temp;Humidity;BMP_temperature;BMP_pressure;BME280_temperature;BME280_humidity;BME280_pressure;Samples;Min_cycle;Max_cycle;Signal;HPM_P1;HPM_P2
2022/12/06 00:00:21;;;;;;;7.45;4.10;;;;;;;6.05;100.00;100040.59;12198024;19;20003;-83
2022/12/06 00:04:23;;;;;;;6.95;3.85;;;;;;;6.07;100.00;100041.22;12198328;19;20003;-84
2022/12/06 00:08:24;;;;;;;7.78;3.53;;;;;;;6.04;100.00;100040.78;12175460;19;20291;-84
2022/12/06 00:12:26;;;;;;;6.55;3.88;;;;;;;6.04;100.00;100036.19;12200616;19;20026;-84
2022/12/06 00:16:28;;;;;;;6.65;3.55;;;;;;;6.09;100.00;100033.59;12195885;19;20007;-83
2022/12/06 00:20:30;;;;;;;8.65;4.50;;;;;;;6.08;100.00;100036.56;12175078;19;20011;-85
2022/12/06 00:24:33;;;;;;;8.30;4.03;;;;;;;6.08;100.00;100031.09;12191864;19;20738;-83
2022/12/06 00:28:36;;;;;;;6.50;3.83;;;;;;;6.07;100.00;100029.44;12194943;19;20043;-83
2022/12/06 00:32:37;;;;;;;6.47;4.00;;;;;;;6.03;100.00;100028.16;12173121;19;20031;-83
2022/12/06 00:36:41;;;;;;;6.30;3.90;;;;;;;6.01;100.00;100024.78;12193906;19;20002;-84
2022/12/06 00:40:42;;;;;;;7.13;3.85;;;;;;;6.00;100.00;100021.22;12193293;19;20035;-83
2022/12/06 00:44:44;;;;;;;7.47;4.25;;;;;;;6.01;100.00;100013.84;12173053;19;20125;-84
2022/12/06 00:48:46;;;;;;;6.82;4.40;;;;;;;5.99;100.00;100016.00;12193989;19;20433;-84
2022/12/06 00:52:49;;;;;;;7.07;4.05;;;;;;;5.97;100.00;100016.19;12195749;19;20014;-85
2022/12/06 00:56:52;;;;;;;7.85;4.47;;;;;;;5.99;100.00;100010.50;12174630;19;20014;-85
2022/12/06 01:00:54;;;;;;;9.25;4.45;;;;;;;5.97;100.00;100007.16;12201333;19;20007;-84
2022/12/06 01:04:55;;;;;;;9.43;4.18;;;;;;;5.99;100.00;100002.31;12199108;19;20026;-83
2022/12/06 01:09:00;;;;;;;6.72;4.38;;;;;;;6.01;100.00;100008.38;12179037;19;20028;-83
2022/12/06 01:13:02;;;;;;;10.40;4.70;;;;;;;5.92;100.00;100011.34;12198836;19;20002;-83
2022/12/06 01:17:04;;;;;;;8.60;5.00;;;;;;;5.83;100.00;100007.16;12201021;19;20007;-83
2022/12/06 01:21:09;;;;;;;7.57;4.30;;;;;;;5.89;100.00;100016.41;12176378;19;20014;-82
2022/12/06 01:25:10;;;;;;;10.63;5.85;;;;;;;5.84;100.00;100011.56;12183305;19;20153;-82
2022/12/06 01:29:12;;;;;;;9.60;5.80;;;;;;;5.74;100.00;100016.66;12190955;19;20039;-83
2022/12/06 01:33:13;;;;;;;10.77;5.68;;;;;;;5.69;100.00;100021.91;12172963;19;20011;-83
2022/12/06 01:37:15;;;;;;;8.18;4.88;;;;;;;5.73;100.00;100020.41;12197947;19;20283;-82
2022/12/06 01:41:18;;;;;;;7.95;4.50;;;;;;;5.86;100.00;100022.28;12174757;19;20135;-82
2022/12/06 01:45:20;;;;;;;8.52;5.05;;;;;;;5.92;100.00;100018.72;12197915;19;20010;-82
2022/12/06 01:49:28;;;;;;;9.88;5.10;;;;;;;5.91;100.00;100023.31;12196918;19;20028;-82
2022/12/06 01:53:31;;;;;;;6.70;4.28;;;;;;;5.92;100.00;100027.75;12173611;19;20003;-81
2022/12/06 01:57:33;;;;;;;7.00;3.97;;;;;;;5.98;100.00;100030.69;12197067;19;20009;-82
2022/12/06 02:01:37;;;;;;;7.90;4.95;;;;;;;6.00;100.00;100023.97;12193990;19;20030;-83
2022/12/06 02:05:39;;;;;;;8.40;4.65;;;;;;;6.04;100.00;100027.09;12172425;19;20050;-81
2022/12/06 02:09:43;;;;;;;8.50;5.05;;;;;;;6.03;100.00;100011.75;12197325;19;20007;-83
2022/12/06 02:13:45;;;;;;;9.25;4.60;;;;;;;5.94;100.00;100011.97;12193716;19;20002;-82
2022/12/06 02:18:01;;;;;;;10.88;5.30;;;;;;;5.89;100.00;100006.31;12175810;19;20010;-81
2022/12/06 02:22:16;;;;;;;9.70;5.18;;;;;;;5.79;100.00;100007.78;12192547;19;19999;-81
2022/12/06 02:26:36;;;;;;;11.38;5.25;;;;;;;5.72;100.00;99994.13;12178465;19;20002;-81
2022/12/06 02:30:38;;;;;;;12.70;5.80;;;;;;;5.81;100.00;99994.75;12197377;19;20609;-81
2022/12/06 02:34:53;;;;;;;8.32;4.05;;;;;;;5.84;100.00;99989.69;12192791;19;20367;-81
2022/12/06 02:39:04;;;;;;;8.30;4.15;;;;;;;5.88;100.00;99996.41;12177288;19;20468;-81
2022/12/06 02:43:18;;;;;;;8.30;4.10;;;;;;;5.90;100.00;99990.72;12205762;19;20009;-81
2022/12/06 02:47:29;;;;;;;6.80;3.78;;;;;;;5.93;100.00;99982.97;12185697;19;20023;-82
2022/12/06 02:51:33;;;;;;;6.32;2.90;;;;;;;5.94;100.00;99983.78;12210357;19;20003;-81
2022/12/06 02:55:36;;;;;;;7.03;3.28;;;;;;;5.90;100.00;99983.34;12224845;19;19995;-80
2022/12/06 02:59:37;;;;;;;5.20;3.20;;;;;;;5.90;100.00;99983.34;12248190;19;22380;-81
2022/12/06 03:04:13;;;;;;;5.82;3.30;;;;;;;5.96;100.00;99983.59;12257234;19;20027;-81
2022/12/06 03:08:25;;;;;;;6.13;3.35;;;;;;;5.92;100.00;99983.16;12221856;19;20006;-81
2022/12/06 03:13:05;;;;;;;9.10;3.42;;;;;;;5.75;100.00;99985.50;12196726;19;20623;-81
2022/12/06 03:17:25;;;;;;;8.05;3.13;;;;;;;5.62;100.00;99980.91;12261695;19;20019;-79
2022/12/06 03:22:00;;;;;;;5.57;3.15;;;;;;;5.65;100.00;99974.16;12212807;19;20006;-81
2022/12/06 03:26:04;;;;;;;7.15;3.10;;;;;;;5.62;100.00;99983.66;12227438;19;21462;-79
2022/12/06 03:30:09;;;;;;;5.68;3.10;;;;;;;5.61;100.00;99979.22;12208631;19;20312;-79
2022/12/06 03:34:13;;;;;;;7.22;3.15;;;;;;;5.62;100.00;99971.84;12218143;19;20002;-81
2022/12/06 03:38:26;;;;;;;6.25;3.53;;;;;;;5.60;100.00;99965.78;12211491;19;20006;-80
2022/12/06 03:42:29;;;;;;;8.85;3.08;;;;;;;5.55;100.00;99965.56;12185831;19;20010;-83
2022/12/06 03:46:36;;;;;;;;;;;;;;;5.57;100.00;99969.78;12211735;19;19999;-82
2022/12/06 03:50:43;;;;;;;6.70;2.88;;;;;;;5.61;100.00;99960.09;12183698;19;20558;-82
2022/12/06 03:54:45;;;;;;;4.22;2.47;;;;;;;5.66;100.00;99964.94;12205490;19;20353;-81
2022/12/06 03:58:46;;;;;;;7.88;2.83;;;;;;;5.68;100.00;99965.53;12204457;19;20006;-80
2022/12/06 04:02:48;;;;;;;4.60;2.38;;;;;;;5.69;100.00;99969.97;12184160;19;20021;-79
2022/12/06 04:06:51;;;;;;;6.82;2.50;;;;;;;5.67;100.00;99963.84;12209841;19;20034;-81
2022/12/06 04:10:52;;;;;;;;;;;;;;;5.68;100.00;99957.31;12207423;19;20046;-80
2022/12/06 04:14:54;;;;;;;4.45;2.38;;;;;;;5.65;100.00;99955.03;12187644;19;19915;-81
2022/12/06 04:18:56;;;;;;;3.20;2.08;;;;;;;5.63;100.00;99951.69;12208087;19;20027;-82
2022/12/06 04:23:03;;;;;;;3.90;2.47;;;;;;;5.61;100.00;99948.31;12224182;19;20026;-82
2022/12/06 04:40:07;;;;;;;3.83;2.03;;;;;;;5.56;100.00;99937.16;12206744;19;20065;-82
2022/12/06 04:44:08;;;;;;;5.43;3.00;;;;;;;5.57;100.00;99942.44;12204813;19;20631;-82
2022/12/06 04:48:10;;;;;;;4.13;2.60;;;;;;;5.57;100.00;99938.88;12187018;19;20361;-82
2022/12/06 04:52:12;;;;;;;5.70;2.40;;;;;;;5.55;100.00;99933.59;12200406;19;20013;-81
2022/12/06 04:56:14;;;;;;;5.43;2.75;;;;;;;5.49;100.00;99938.03;12205586;19;20010;-82
2022/12/06 05:00:16;;;;;;;4.07;2.23;;;;;;;5.45;100.00;99928.59;12177026;19;20025;-82
2022/12/06 05:04:18;;;;;;;3.95;2.15;;;;;;;5.49;100.00;99932.56;12201264;19;20465;-82
2022/12/06 05:08:20;;;;;;;4.07;2.08;;;;;;;5.51;100.00;99926.91;12182475;19;20061;-81
2022/12/06 05:12:22;;;;;;;4.20;2.03;;;;;;;5.49;100.00;99924.38;12197545;19;20014;-82
2022/12/06 05:16:23;;;;;;;5.22;2.05;;;;;;;5.53;100.00;99932.13;12201469;19;20010;-81
2022/12/06 05:20:25;;;;;;;6.95;2.03;;;;;;;5.55;100.00;99932.78;12179359;19;20023;-81
2022/12/06 05:24:27;;;;;;;3.83;2.22;;;;;;;5.59;100.00;99934.00;12196391;19;20047;-81
2022/12/06 05:28:29;;;;;;;5.63;2.40;;;;;;;5.50;100.00;99941.59;12198021;19;20347;-81
2022/12/06 05:32:30;;;;;;;4.50;1.90;;;;;;;5.36;100.00;99939.97;12172859;19;20010;-81
2022/12/06 05:36:32;;;;;;;4.57;2.22;;;;;;;5.34;100.00;99934.69;12201413;19;20653;-83
2022/12/06 05:40:34;;;;;;;4.05;2.08;;;;;;;5.37;100.00;99941.63;12199370;19;20009;-82
2022/12/06 05:44:35;;;;;;;3.60;1.88;;;;;;;5.35;100.00;99944.56;12176128;19;20047;-81
2022/12/06 05:48:37;;;;;;;4.10;2.38;;;;;;;5.32;100.00;99947.72;12198706;19;20094;-81
2022/12/06 05:52:39;;;;;;;3.78;1.95;;;;;;;5.29;100.00;99950.88;12196095;19;20039;-81
2022/12/06 05:56:41;;;;;;;6.25;2.33;;;;;;;5.20;100.00;99957.63;12178348;19;20014;-81
2022/12/06 06:00:47;;;;;;;4.50;2.30;;;;;;;5.16;100.00;99953.66;12196062;19;20680;-81
2022/12/06 06:04:49;;;;;;;5.80;2.70;;;;;;;5.13;100.00;99956.78;12196675;19;20002;-81
2022/12/06 06:08:51;;;;;;;4.65;2.50;;;;;;;5.12;100.00;99957.84;12176659;19;20758;-82
2022/12/06 06:12:53;;;;;;;4.40;2.35;;;;;;;5.08;100.00;99956.56;12192937;19;20381;-80
2022/12/06 06:16:54;;;;;;;4.47;2.38;;;;;;;5.02;100.00;99944.59;12194028;19;20010;-81
2022/12/06 06:20:58;;;;;;;5.50;2.42;;;;;;;5.05;100.00;99955.09;12164189;19;20382;-81
2022/12/06 06:25:05;;;;;;;6.93;2.40;;;;;;;5.13;100.00;99951.34;12189624;19;20014;-83
2022/12/06 06:29:06;;;;;;;5.43;2.70;;;;;;;5.13;100.00;99957.63;12191312;19;20003;-81
2022/12/06 06:33:08;;;;;;;6.95;3.03;;;;;;;5.12;100.00;99955.13;12168171;19;20007;-82
2022/12/06 06:37:10;;;;;;;5.38;2.60;;;;;;;5.17;100.00;99956.16;12188944;19;20403;-83
2022/12/06 06:41:12;;;;;;;4.57;2.40;;;;;;;5.15;100.00;99954.69;12184612;19;20074;-83
2022/12/06 06:45:13;;;;;;;6.20;2.55;;;;;;;5.08;100.00;99953.84;12163318;19;20010;-83
2022/12/06 06:49:16;;;;;;;4.22;2.53;;;;;;;5.08;100.00;99959.31;12168739;19;20007;-83
2022/12/06 06:53:19;;;;;;;5.80;3.00;;;;;;;5.09;100.00;99963.75;12171750;19;20011;-82
2022/12/06 06:57:20;;;;;;;4.47;2.45;;;;;;;5.13;100.00;99965.00;12169562;19;20414;-83
2022/12/06 07:01:23;;;;;;;6.22;2.55;;;;;;;5.15;100.00;99955.53;12182936;19;20017;-83
2022/12/06 07:05:26;;;;;;;5.07;2.30;;;;;;;5.16;100.00;99961.84;12170691;19;19999;-82
2022/12/06 07:09:27;;;;;;;4.85;2.38;;;;;;;5.18;100.00;99966.03;12195085;19;20078;-83
2022/12/06 07:13:29;;;;;;;5.07;2.80;;;;;;;5.22;100.00;99966.47;12192187;19;20375;-82
2022/12/06 07:17:31;;;;;;;4.82;2.47;;;;;;;5.22;100.00;99963.72;12165258;19;20014;-83
2022/12/06 07:21:32;;;;;;;4.88;2.80;;;;;;;5.20;100.00;99960.34;12186604;19;20003;-84
2022/12/06 07:25:34;;;;;;;5.40;2.75;;;;;;;5.20;100.00;99960.34;12199041;19;20472;-83
2022/12/06 07:29:37;;;;;;;5.53;2.33;;;;;;;5.22;100.00;99961.81;12181418;19;20074;-83
2022/12/06 07:33:39;;;;;;;6.47;2.72;;;;;;;5.29;100.00;99966.44;12202217;19;20011;-83
2022/12/06 07:37:41;;;;;;;;;;;;;;;5.30;100.00;99963.50;12207976;19;20007;-82
2022/12/06 07:46:23;;;;;;;4.93;2.80;;;;;;;5.33;100.00;99962.25;12201471;19;21192;-81
2022/12/06 07:50:25;;;;;;;6.47;3.25;;;;;;;5.35;100.00;99960.97;12178050;19;20010;-81
2022/12/06 07:54:26;;;;;;;5.93;3.03;;;;;;;5.37;100.00;99967.06;12201905;19;20125;-81
2022/12/06 07:58:28;;;;;;;6.32;3.40;;;;;;;5.39;100.00;99969.59;12201721;19;20038;-81
2022/12/06 08:02:30;;;;;;;7.45;3.05;;;;;;;5.36;100.00;99957.19;12174282;19;20033;-81
2022/12/06 08:06:32;;;;;;;6.70;3.70;;;;;;;5.41;100.00;99968.34;12203078;19;20429;-81
2022/12/06 08:10:35;;;;;;;5.68;3.22;;;;;;;5.46;100.00;99976.72;12235469;19;20025;-80
2022/12/06 08:14:37;;;;;;;8.07;3.63;;;;;;;5.43;100.00;99966.22;12229778;19;20010;-82
2022/12/06 08:18:39;;;;;;;6.65;3.33;;;;;;;5.45;100.00;99966.00;12210478;19;20003;-82
2022/12/06 08:22:41;;;;;;;6.90;3.65;;;;;;;5.37;100.00;99964.34;12207821;19;20376;-82
2022/12/06 08:26:42;;;;;;;6.38;2.95;;;;;;;5.38;100.00;99966.00;12188885;19;20010;-82
2022/12/06 08:30:44;;;;;;;5.97;3.50;;;;;;;5.39;100.00;99964.13;12206730;19;20492;-83
2022/12/06 08:34:46;;;;;;;6.00;3.15;;;;;;;5.37;100.00;99964.34;12202806;19;20006;-81
2022/12/06 08:38:49;;;;;;;5.03;2.90;;;;;;;5.42;100.00;99966.44;12181048;19;20027;-81
2022/12/06 08:42:51;;;;;;;9.02;3.47;;;;;;;5.48;100.00;99962.84;12203491;19;20006;-82
2022/12/06 08:46:53;;;;;;;6.80;3.85;;;;;;;5.55;100.00;99965.56;12204155;19;20030;-81
2022/12/06 08:50:55;;;;;;;5.40;2.95;;;;;;;5.58;100.00;99959.69;12180921;19;20002;-81
2022/12/06 08:54:57;;;;;;;5.90;2.97;;;;;;;5.59;100.00;99970.41;12203538;19;21665;-81
2022/12/06 09:02:04;;;;;;;6.07;2.67;;;;;;;5.61;100.00;99970.19;12250167;19;20069;-81
2022/12/06 09:06:07;;;;;;;5.57;3.17;;;;;;;5.64;100.00;99978.78;12235666;19;20007;-82
2022/12/06 09:10:09;;;;;;;;;;;;;;;5.69;100.00;99978.16;12258159;19;20027;-82
2022/12/06 09:14:13;;;;;;;6.03;2.83;;;;;;;5.75;100.00;99971.00;12230687;19;19935;-81
2022/12/06 09:18:22;;;;;;;8.48;3.00;;;;;;;5.79;100.00;99970.34;12282937;19;19998;-81
2022/12/06 09:22:23;;;;;;;5.75;3.00;;;;;;;5.78;100.00;99968.69;12285574;19;20019;-81
2022/12/06 09:26:27;;;;;;;5.55;3.38;;;;;;;5.74;100.00;99975.63;12242980;19;20074;-83
2022/12/06 09:30:29;;;;;;;8.13;3.10;;;;;;;5.79;100.00;99974.97;12260101;19;20131;-83
2022/12/06 09:34:30;;;;;;;8.07;3.40;;;;;;;5.88;100.00;99968.22;12255275;19;20002;-83
2022/12/06 09:38:35;;;;;;;5.53;3.33;;;;;;;6.00;100.00;99962.94;12234897;19;20039;-82
2022/12/06 09:42:48;;;;;;;6.25;3.38;;;;;;;6.11;100.00;99970.47;12255079;19;20011;-83
2022/12/06 09:47:23;;;;;;;7.45;3.80;;;;;;;6.08;100.00;99965.44;12259613;19;21633;-82
2022/12/06 09:51:57;;;;;;;5.15;3.17;;;;;;;5.95;100.00;99982.75;12233861;19;20002;-83
2022/12/06 09:56:23;;;;;;;7.32;4.13;;;;;;;5.88;100.00;99993.66;12256397;19;20484;-83
2022/12/06 10:00:34;;;;;;;4.93;2.88;;;;;;;5.77;100.00;99994.34;12227132;19;20037;-82
2022/12/06 10:05:06;;;;;;;5.30;3.00;;;;;;;5.91;100.00;99990.50;12247008;19;20003;-83
2022/12/06 10:09:21;;;;;;;4.38;2.42;;;;;;;5.89;100.00;99983.59;12230052;19;20007;-82
2022/12/06 10:13:43;;;;;;;6.15;3.17;;;;;;;5.80;100.00;99976.66;12204810;19;20038;-81
2022/12/06 10:18:11;;;;;;;4.03;2.42;;;;;;;5.84;100.00;99984.22;12184187;19;20027;-82
2022/12/06 10:22:33;;;;;;;7.45;3.22;;;;;;;5.94;100.00;99976.41;12200099;19;20010;-82
2022/12/06 10:26:50;;;;;;;6.72;3.20;;;;;;;5.88;100.00;99980.00;12183794;19;20015;-81
2022/12/06 10:30:55;;;;;;;5.95;3.05;;;;;;;5.83;100.00;99977.09;12207544;19;20579;-82
2022/12/06 10:35:11;;;;;;;6.22;3.03;;;;;;;5.82;100.00;99967.19;12213759;19;20015;-82
2022/12/06 10:39:18;;;;;;;5.63;3.42;;;;;;;5.88;100.00;99982.72;12182790;19;20019;-82
2022/12/06 10:43:30;;;;;;;5.47;3.17;;;;;;;6.02;100.00;99974.53;12211561;19;20095;-82
2022/12/06 10:47:40;;;;;;;6.10;3.40;;;;;;;6.17;100.00;99975.09;12201593;19;20037;-83
2022/12/06 10:52:24;;;;;;;6.13;3.22;;;;;;;6.19;100.00;99978.47;12218687;19;21752;-82
2022/12/06 10:56:28;;;;;;;;;;;;;;;6.31;100.00;99973.97;12183542;19;20007;-83
2022/12/06 11:00:36;;;;;;;5.68;3.42;;;;;;;6.54;100.00;99980.78;12200423;19;20237;-83
2022/12/06 11:04:38;;;;;;;6.57;3.55;;;;;;;6.61;100.00;99974.22;12197182;19;20043;-82
2022/12/06 11:08:47;;;;;;;5.63;3.83;;;;;;;6.66;100.00;99978.19;12179776;19;20007;-82
2022/12/06 11:12:57;;;;;;;6.35;3.95;;;;;;;6.62;100.00;99969.59;12199499;19;20002;-83
2022/12/06 11:17:15;;;;;;;5.75;3.53;;;;;;;6.65;100.00;99966.41;12200792;19;20023;-82
2022/12/06 11:21:38;;;;;;;5.40;3.35;;;;;;;6.78;100.00;99968.22;12175886;19;20006;-83
2022/12/06 11:25:51;;;;;;;7.07;3.57;;;;;;;6.92;100.00;99963.47;12200020;19;20066;-82
2022/12/06 11:29:53;;;;;;;5.07;3.28;;;;;;;7.14;100.00;99959.31;12182175;19;20046;-82
2022/12/06 11:33:57;;;;;;;5.50;3.17;;;;;;;7.11;100.00;99965.25;12239024;19;20003;-82
2022/12/06 11:38:02;;;;;;;7.53;3.80;;;;;;;7.15;100.00;99968.38;12206828;19;20002;-83
2022/12/06 11:42:06;;;;;;;7.38;3.40;;;;;;;7.21;100.00;99951.03;12181690;19;19998;-83
2022/12/06 11:46:10;;;;;;;5.47;3.47;;;;;;;7.22;100.00;99953.53;12202511;19;20007;-83
2022/12/06 11:50:17;;;;;;;4.85;2.80;;;;;;;7.31;100.00;99954.91;12202253;19;20014;-82
2022/12/06 11:54:25;;;;;;;5.30;3.15;;;;;;;7.40;100.00;99957.38;12177207;19;20007;-82
2022/12/06 11:59:00;;;;;;;6.38;3.45;;;;;;;7.31;100.00;99949.44;12201114;19;20039;-82
2022/12/06 12:03:02;;;;;;;5.22;3.30;;;;;;;7.29;100.00;99948.84;12173418;19;20007;-82
2022/12/06 12:07:10;;;;;;;5.07;3.08;;;;;;;7.41;100.00;99940.72;12193695;19;20384;-83
2022/12/06 12:11:20;;;;;;;4.80;3.17;;;;;;;7.38;100.00;99934.84;12196044;19;20055;-82
2022/12/06 12:15:22;;;;;;;5.78;3.47;;;;;;;7.44;100.00;99929.28;12176104;19;20014;-83
2022/12/06 12:19:26;;;;;;;4.75;3.10;;;;;;;7.56;100.00;99937.63;12195214;19;20034;-82
2022/12/06 12:23:33;;;;;;;5.97;2.58;;;;;;;7.52;100.00;99939.97;12174794;19;20543;-82
2022/12/06 12:27:38;;;;;;;5.60;3.08;;;;;;;7.47;99.44;99931.59;12198866;19;20014;-82
2022/12/06 12:31:57;;;;;;;5.88;2.88;;;;;;;7.44;98.76;99936.69;12196618;19;20356;-83
2022/12/06 12:36:02;;;;;;;4.80;2.40;;;;;;;7.47;98.92;99925.28;12172619;19;20006;-83
2022/12/06 12:40:04;;;;;;;4.30;2.58;;;;;;;7.47;98.94;99925.28;12195933;19;20006;-83
2022/12/06 12:44:15;;;;;;;4.57;2.58;;;;;;;7.43;98.92;99935.00;12196645;19;20074;-83
2022/12/06 12:48:39;;;;;;;4.72;2.63;;;;;;;7.28;99.17;99938.09;12175766;19;20006;-82
2022/12/06 12:52:41;;;;;;;6.03;2.85;;;;;;;7.26;99.28;99935.59;12194015;19;20003;-82
2022/12/06 12:56:43;;;;;;;6.20;2.87;;;;;;;7.21;98.87;99935.41;12175774;19;20015;-82
2022/12/06 13:00:47;;;;;;;5.40;2.70;;;;;;;7.21;98.73;99937.31;12194475;19;20042;-83
2022/12/06 13:04:55;;;;;;;5.22;2.65;;;;;;;7.20;98.62;99933.75;12205000;19;21681;-82
2022/12/06 13:09:25;;;;;;;4.57;2.80;;;;;;;7.15;98.96;99933.56;12224200;19;20033;-81
2022/12/06 13:13:40;;;;;;;4.55;2.47;;;;;;;7.05;99.38;99928.63;12213699;19;20010;-82
2022/12/06 13:17:48;;;;;;;4.40;2.50;;;;;;;6.97;99.83;99936.28;12182547;19;20023;-83
2022/12/06 13:21:50;;;;;;;4.45;2.88;;;;;;;6.95;100.00;99932.91;12197939;19;20118;-82
2022/12/06 13:26:01;;;;;;;5.40;3.05;;;;;;;6.93;100.00;99932.28;12201796;19;20007;-82
2022/12/06 13:30:14;;;;;;;4.05;2.50;;;;;;;7.02;100.00;99933.66;12179730;19;20648;-83
2022/12/06 13:34:30;;;;;;;;;;;;;;;6.98;100.00;99927.81;12197913;19;20077;-83
2022/12/06 13:38:40;;;;;;;4.47;2.33;;;;;;;6.95;100.00;99924.69;12178435;19;19928;-84
2022/12/06 13:42:44;;;;;;;4.85;2.33;;;;;;;6.95;100.00;99922.78;12196228;19;21195;-82
2022/12/06 13:46:46;;;;;;;7.93;3.13;;;;;;;6.98;100.00;99922.34;12200543;19;20014;-84
2022/12/06 13:50:49;;;;;;;6.85;2.60;;;;;;;6.96;100.00;99918.13;12185211;19;20047;-82
2022/12/06 13:54:50;;;;;;;5.57;2.85;;;;;;;6.97;100.00;99911.63;12202479;19;20018;-82
2022/12/06 13:58:57;;;;;;;4.75;3.35;;;;;;;6.93;100.00;99924.94;12201525;19;20014;-82
2022/12/06 14:03:01;;;;;;;6.30;3.10;;;;;;;6.90;100.00;99924.50;12180159;19;20030;-82
2022/12/06 14:07:08;;;;;;;6.22;3.20;;;;;;;6.85;100.00;99936.97;12198743;19;21093;-81
2022/12/06 14:11:11;;;;;;;5.75;2.78;;;;;;;6.84;100.00;99937.19;12198225;19;20011;-82
2022/12/06 14:15:17;;;;;;;5.40;3.17;;;;;;;6.89;100.00;99940.09;12179927;19;20023;-82
2022/12/06 14:19:20;;;;;;;6.97;3.88;;;;;;;6.84;100.00;99942.66;12200638;19;20413;-82
2022/12/06 14:23:28;;;;;;;5.13;2.97;;;;;;;6.85;100.00;99944.38;12204686;19;20030;-83
2022/12/06 14:27:42;;;;;;;7.35;3.20;;;;;;;6.96;100.00;99945.53;12183966;19;20006;-83
2022/12/06 14:31:43;;;;;;;5.13;2.65;;;;;;;7.02;100.00;99930.94;12202645;19;20094;-82
2022/12/06 14:35:51;;;;;;;8.52;3.38;;;;;;;7.05;100.00;99939.56;12181404;19;20098;-81
2022/12/06 14:39:54;;;;;;;4.35;2.75;;;;;;;7.05;100.00;99930.53;12202867;19;20074;-82
2022/12/06 14:43:55;;;;;;;6.53;2.88;;;;;;;6.87;100.00;99935.91;12201743;19;20070;-82
2022/12/06 14:47:58;;;;;;;5.00;3.10;;;;;;;6.81;100.00;99932.16;12176882;19;20011;-82
2022/12/06 14:52:00;;;;;;;5.30;3.08;;;;;;;6.79;100.00;99931.56;12202622;19;20014;-82
2022/12/06 14:56:19;;;;;;;6.70;2.97;;;;;;;6.73;100.00;99930.53;12199740;19;20003;-82
2022/12/06 15:00:35;;;;;;;4.75;2.55;;;;;;;6.74;100.00;99925.91;12218567;19;20048;-82
2022/12/06 15:04:39;;;;;;;8.60;3.60;;;;;;;6.70;100.00;99925.50;12214493;19;20076;-82
2022/12/06 15:08:46;;;;;;;7.40;4.00;;;;;;;6.68;100.00;99916.66;12182750;19;20028;-82
2022/12/06 15:13:06;;;;;;;6.45;3.75;;;;;;;6.67;100.00;99920.47;12209520;19;20452;-82
2022/12/06 15:17:08;;;;;;;7.95;4.18;;;;;;;6.70;100.00;99919.19;12256644;19;19991;-82
2022/12/06 15:21:15;;;;;;;6.22;3.40;;;;;;;6.70;100.00;99920.03;12227690;19;20014;-82
2022/12/06 15:25:16;;;;;;;7.40;3.55;;;;;;;6.72;100.00;99922.53;12216316;19;20006;-83
2022/12/06 15:29:18;;;;;;;6.07;3.15;;;;;;;6.76;100.00;99924.63;12212703;19;20030;-82
2022/12/06 15:33:23;;;;;;;5.03;3.08;;;;;;;6.78;100.00;99924.38;12185264;19;20472;-82
2022/12/06 15:37:25;;;;;;;5.32;3.20;;;;;;;6.77;100.00;99929.03;12208035;19;20007;-82
2022/12/06 15:41:47;;;;;;;6.80;3.25;;;;;;;6.79;100.00;99926.91;12184159;19;20010;-82
2022/12/06 15:45:49;;;;;;;8.57;4.18;;;;;;;6.71;100.00;99921.69;12209653;19;20011;-82
2022/12/06 15:49:52;;;;;;;6.22;3.75;;;;;;;6.67;100.00;99925.97;12212757;19;20003;-82
2022/12/06 15:53:56;;;;;;;7.05;3.80;;;;;;;6.66;100.00;99928.91;12189345;19;20555;-83
2022/12/06 15:57:58;;;;;;;9.40;3.58;;;;;;;6.60;100.00;99931.50;12214640;19;20019;-82
2022/12/06 16:02:00;;;;;;;6.80;3.42;;;;;;;6.59;100.00;99929.78;12207448;19;20006;-82
2022/12/06 16:06:02;;;;;;;6.13;3.13;;;;;;;6.61;100.00;99937.78;12189663;19;21609;-82
2022/12/06 16:10:04;;;;;;;5.55;3.05;;;;;;;6.55;100.00;99936.78;12199743;19;20014;-82
2022/12/06 16:14:06;;;;;;;7.13;3.43;;;;;;;6.51;100.00;99931.94;12209116;19;20014;-82
2022/12/06 16:18:08;;;;;;;8.73;3.83;;;;;;;6.36;100.00;99938.56;12186643;19;20010;-82
2022/12/06 16:22:09;;;;;;;6.80;3.53;;;;;;;6.33;100.00;99930.78;12207928;19;20010;-82
2022/12/06 16:26:12;;;;;;;6.43;3.50;;;;;;;6.34;100.00;99927.00;12210296;19;20035;-82
2022/12/06 16:30:14;;;;;;;6.37;3.70;;;;;;;6.38;100.00;99917.28;12185274;19;20062;-82
2022/12/06 16:34:16;;;;;;;5.90;3.50;;;;;;;6.41;100.00;99920.66;12202627;19;20348;-82
2022/12/06 16:38:18;;;;;;;6.20;3.53;;;;;;;6.42;100.00;99923.16;12208112;19;20942;-82
2022/12/06 16:42:19;;;;;;;4.67;2.53;;;;;;;6.42;100.00;99923.16;12184026;19;20006;-82
2022/12/06 16:46:34;;;;;;;6.53;3.22;;;;;;;6.39;100.00;99918.13;12208822;19;20018;-83
2022/12/06 16:50:38;;;;;;;;;;;;;;;6.30;100.00;99933.97;12185677;19;20006;-82
2022/12/06 16:54:40;;;;;;;7.38;3.10;;;;;;;6.33;100.00;99935.44;12206926;19;19967;-82
2022/12/06 16:58:42;;;;;;;6.78;3.13;;;;;;;6.31;100.00;99921.97;12205797;19;20573;-82
2022/12/06 17:02:44;;;;;;;7.63;3.42;;;;;;;6.33;100.00;99924.47;12186398;19;20481;-82
2022/12/06 17:06:48;;;;;;;6.68;3.03;;;;;;;6.34;100.00;99924.28;12207151;19;20006;-82
2022/12/06 17:12:01;;;;;;;7.10;3.70;;;;;;;6.33;100.00;99925.31;12201055;19;20002;-82
2022/12/06 17:15:14;;;;;;;7.80;3.83;;;;;;;6.35;100.00;99931.41;12183063;19;20036;-83
2022/12/06 17:19:18;;;;;;;7.68;3.83;;;;;;;6.28;100.00;99916.94;12203806;19;20087;-82
2022/12/06 17:23:19;;;;;;;7.22;3.50;;;;;;;6.24;100.00;99921.16;12213777;19;20460;-82
2022/12/06 17:27:21;;;;;;;8.00;4.07;;;;;;;6.22;100.00;99920.56;12200864;19;20015;-82
2022/12/06 17:31:23;;;;;;;8.40;4.30;;;;;;;6.21;100.00;99924.34;12217299;19;20468;-82
2022/12/06 17:35:25;;;;;;;12.32;5.80;;;;;;;6.16;100.00;99927.75;12201306;19;20085;-83
2022/12/06 17:39:26;;;;;;;7.85;4.25;;;;;;;6.16;100.00;99918.69;12217220;19;20392;-83
2022/12/06 17:43:28;;;;;;;8.25;4.57;;;;;;;6.18;100.00;99932.97;12218086;19;20006;-82
2022/12/06 17:47:29;;;;;;;6.85;3.70;;;;;;;6.22;100.00;99931.50;12195339;19;20007;-82
2022/12/06 17:51:31;;;;;;;7.10;4.00;;;;;;;6.23;100.00;99930.44;12219117;19;20010;-82
2022/12/06 17:55:33;;;;;;;8.50;4.88;;;;;;;6.20;100.00;99928.13;12222363;19;20034;-82
2022/12/06 17:59:35;;;;;;;7.73;4.77;;;;;;;6.19;100.00;99929.22;12226698;19;20011;-83
2022/12/06 18:03:37;;;;;;;9.50;4.70;;;;;;;6.18;100.00;99932.97;12264297;19;20018;-83
2022/12/06 18:07:39;;;;;;;8.80;4.53;;;;;;;6.18;100.00;99929.41;12229038;19;20003;-83
2022/12/06 18:11:41;;;;;;;8.80;4.68;;;;;;;6.11;100.00;99935.75;12212630;19;20007;-83
2022/12/06 18:15:43;;;;;;;7.53;4.50;;;;;;;6.11;100.00;99943.97;12241463;19;20014;-83
2022/12/06 18:19:46;;;;;;;10.32;5.10;;;;;;;6.08;100.00;99933.44;12226378;19;20039;-83
2022/12/06 18:23:48;;;;;;;9.18;5.10;;;;;;;6.08;100.00;99941.66;12195335;19;20468;-83
2022/12/06 18:28:10;;;;;;;5.22;3.20;;;;;;;6.11;100.00;99937.66;12215749;19;20385;-83
2022/12/06 18:32:12;;;;;;;9.90;5.13;;;;;;;6.09;100.00;99935.13;12217836;19;20011;-85
2022/12/06 18:36:14;;;;;;;8.73;4.82;;;;;;;6.10;100.00;99934.09;12194902;19;20139;-83
2022/12/06 18:40:15;;;;;;;9.40;5.15;;;;;;;6.10;100.00;99936.00;12218193;19;20057;-82
2022/12/06 18:44:17;;;;;;;9.48;4.93;;;;;;;6.07;100.00;99940.00;12215944;19;20037;-82
2022/12/06 18:48:19;;;;;;;9.05;4.80;;;;;;;6.07;100.00;99937.25;12200727;19;20015;-82
2022/12/06 18:52:21;;;;;;;7.80;4.45;;;;;;;6.09;100.00;99948.81;12219264;19;20015;-83
2022/12/06 18:56:24;;;;;;;9.60;4.88;;;;;;;6.08;100.00;99944.41;12221190;19;20010;-83
2022/12/06 19:00:26;;;;;;;8.90;4.35;;;;;;;6.02;100.00;99945.25;12194942;19;20026;-83
2022/12/06 19:04:27;;;;;;;9.82;4.85;;;;;;;5.98;100.00;99935.81;12217735;19;20006;-83
2022/12/06 19:08:29;;;;;;;10.20;4.78;;;;;;;5.94;100.00;99938.13;12197436;19;20027;-83
2022/12/06 19:12:31;;;;;;;11.25;4.68;;;;;;;5.94;100.00;99943.59;12209113;19;20372;-83
2022/12/06 19:16:38;;;;;;;8.93;4.63;;;;;;;5.94;100.00;99945.50;12217441;19;20014;-83
2022/12/06 19:20:40;;;;;;;12.68;4.93;;;;;;;5.96;100.00;99945.31;12193393;19;20019;-82
2022/12/06 19:24:45;;;;;;;8.63;4.70;;;;;;;5.93;100.00;99947.41;12210935;19;20517;-83